sensor_id;sensor_type;location;lat;lon;timestamp;temperature;humidity
37002;DHT22;22913;51.910;8.374;2022-11-12T00:00:52;6.50;99.90
37002;DHT22;22913;51.910;8.374;2022-11-12T00:03:37;6.40;99.90
37002;DHT22;22913;51.910;8.374;2022-11-12T00:06:23;6.40;99.90
37002;DHT22;22913;51.910;8.374;2022-11-12T00:09:08;6.40;99.90
37002;DHT22;22913;51.910;8.374;2022-11-12T00:11:54;6.40;99.90
37002;DHT22;22913;51.910;8.374;2022-11-12T00:14:40;6.40;99.90
37002;DHT22;22913;51.910;8.374;2022-11-12T00:17:27;6.40;99.90
37002;DHT22;22913;51.910;8.374;2022-11-12T00:20:15;6.40;99.90
37002;DHT22;22913;51.910;8.374;2022-11-12T00:23:01;6.40;99.90
37002;DHT22;22913;51.910;8.374;2022-11-12T00:25:47;6.40;99.90
37002;DHT22;22913;51.910;8.374;2022-11-12T00:28:32;6.30;99.90
37002;DHT22;22913;51.910;8.374;2022-11-12T00:31:18;6.20;99.90
37002;DHT22;22913;51.910;8.374;2022-11-12T00:34:05;6.20;99.90
37002;DHT22;22913;51.910;8.374;2022-11-12T00:36:51;6.20;99.90
37002;DHT22;22913;51.910;8.374;2022-11-12T00:39:36;6.20;99.90
37002;DHT22;22913;51.910;8.374;2022-11-12T00:42:22;6.10;99.90
37002;DHT22;22913;51.910;8.374;2022-11-12T00:45:08;6.10;99.90
37002;DHT22;22913;51.910;8.374;2022-11-12T00:47:54;6.00;99.90
37002;DHT22;22913;51.910;8.374;2022-11-12T00:50:41;6.00;99.90
37002;DHT22;22913;51.910;8.374;2022-11-12T00:53:27;6.00;99.90
37002;DHT22;22913;51.910;8.374;2022-11-12T00:56:13;6.00;99.90
37002;DHT22;22913;51.910;8.374;2022-11-12T00:58:59;6.00;99.90
37002;DHT22;22913;51.910;8.374;2022-11-12T01:01:44;6.00;99.90
37002;DHT22;22913;51.910;8.374;2022-11-12T01:04:30;5.90;99.90
37002;DHT22;22913;51.910;8.374;2022-11-12T01:07:17;5.90;99.90
37002;DHT22;22913;51.910;8.374;2022-11-12T01:10:03;5.90;99.90
37002;DHT22;22913;51.910;8.374;2022-11-12T01:12:49;5.90;99.90
37002;DHT22;22913;51.910;8.374;2022-11-12T01:15:39;5.90;99.90
37002;DHT22;22913;51.910;8.374;2022-11-12T01:18:24;6.00;99.90
37002;DHT22;22913;51.910;8.374;2022-11-12T01:21:11;6.00;99.90
37002;DHT22;22913;51.910;8.374;2022-11-12T01:23:59;6.10;99.90
37002;DHT22;22913;51.910;8.374;2022-11-12T01:26:45;6.00;99.90
37002;DHT22;22913;51.910;8.374;2022-11-12T01:29:31;6.00;99.90
37002;DHT22;22913;51.910;8.374;2022-11-12T01:32:17;5.90;99.90
37002;DHT22;22913;51.910;8.374;2022-11-12T01:35:03;5.90;99.90
37002;DHT22;22913;51.910;8.374;2022-11-12T01:37:48;5.80;99.90
37002;DHT22;22913;51.910;8.374;2022-11-12T01:40:35;5.70;99.90
37002;DHT22;22913;51.910;8.374;2022-11-12T01:43:21;5.70;99.90
37002;DHT22;22913;51.910;8.374;2022-11-12T01:46:13;5.70;99.90
37002;DHT22;22913;51.910;8.374;2022-11-12T01:49:03;5.70;99.90
37002;DHT22;22913;51.910;8.374;2022-11-12T01:51:54;5.60;99.90
37002;DHT22;22913;51.910;8.374;2022-11-12T01:54:41;5.60;99.90
37002;DHT22;22913;51.910;8.374;2022-11-12T01:57:33;5.50;99.90
37002;DHT22;22913;51.910;8.374;2022-11-12T02:00:21;5.50;99.90
37002;DHT22;22913;51.910;8.374;2022-11-12T02:03:09;5.50;99.90
37002;DHT22;22913;51.910;8.374;2022-11-12T02:06:01;5.50;99.90
37002;DHT22;22913;51.910;8.374;2022-11-12T02:08:47;5.40;99.90
37002;DHT22;22913;51.910;8.374;2022-11-12T02:11:34;5.40;99.90
37002;DHT22;22913;51.910;8.374;2022-11-12T02:14:21;5.30;99.90
37002;DHT22;22913;51.910;8.374;2022-11-12T02:17:05;5.30;99.90
37002;DHT22;22913;51.910;8.374;2022-11-12T02:19:51;5.30;99.90
37002;DHT22;22913;51.910;8.374;2022-11-12T02:22:38;5.30;99.90
37002;DHT22;22913;51.910;8.374;2022-11-12T02:25:24;5.30;99.90
37002;DHT22;22913;51.910;8.374;2022-11-12T02:28:10;5.20;99.90
37002;DHT22;22913;51.910;8.374;2022-11-12T02:30:56;5.10;99.90
37002;DHT22;22913;51.910;8.374;2022-11-12T02:33:41;5.10;99.90
37002;DHT22;22913;51.910;8.374;2022-11-12T02:36:28;5.10;99.90
37002;DHT22;22913;51.910;8.374;2022-11-12T02:39:15;5.10;99.90
37002;DHT22;22913;51.910;8.374;2022-11-12T02:42:00;5.10;99.90
37002;DHT22;22913;51.910;8.374;2022-11-12T02:44:46;5.00;99.90
37002;DHT22;22913;51.910;8.374;2022-11-12T02:47:32;5.00;99.90
37002;DHT22;22913;51.910;8.374;2022-11-12T02:50:17;5.10;99.90
37002;DHT22;22913;51.910;8.374;2022-11-12T02:53:03;5.00;99.90
37002;DHT22;22913;51.910;8.374;2022-11-12T02:55:50;5.00;99.90
37002;DHT22;22913;51.910;8.374;2022-11-12T02:58:35;5.10;99.90
37002;DHT22;22913;51.910;8.374;2022-11-12T03:01:21;5.10;99.90
37002;DHT22;22913;51.910;8.374;2022-11-12T03:04:06;5.00;99.90
37002;DHT22;22913;51.910;8.374;2022-11-12T03:06:52;5.00;99.90
37002;DHT22;22913;51.910;8.374;2022-11-12T03:09:37;5.00;99.90
37002;DHT22;22913;51.910;8.374;2022-11-12T03:12:24;5.00;99.90
37002;DHT22;22913;51.910;8.374;2022-11-12T03:15:09;5.00;99.90
37002;DHT22;22913;51.910;8.374;2022-11-12T03:17:56;5.10;99.90
37002;DHT22;22913;51.910;8.374;2022-11-12T03:20:42;5.10;99.90
37002;DHT22;22913;51.910;8.374;2022-11-12T03:23:27;5.10;99.90
37002;DHT22;22913;51.910;8.374;2022-11-12T03:26:13;5.10;99.90
37002;DHT22;22913;51.910;8.374;2022-11-12T03:29:00;5.10;99.90
37002;DHT22;22913;51.910;8.374;2022-11-12T03:31:46;5.10;99.90
37002;DHT22;22913;51.910;8.374;2022-11-12T03:34:31;5.10;99.90
37002;DHT22;22913;51.910;8.374;2022-11-12T03:37:17;5.20;99.90
37002;DHT22;22913;51.910;8.374;2022-11-12T03:40:03;5.20;99.90
37002;DHT22;22913;51.910;8.374;2022-11-12T03:42:50;5.10;99.90
37002;DHT22;22913;51.910;8.374;2022-11-12T03:45:37;5.00;99.90
37002;DHT22;22913;51.910;8.374;2022-11-12T03:48:22;5.00;99.90
37002;DHT22;22913;51.910;8.374;2022-11-12T03:51:08;5.00;99.90
37002;DHT22;22913;51.910;8.374;2022-11-12T03:53:55;5.00;99.90
37002;DHT22;22913;51.910;8.374;2022-11-12T03:56:40;5.00;99.90
37002;DHT22;22913;51.910;8.374;2022-11-12T03:59:26;4.90;99.90
37002;DHT22;22913;51.910;8.374;2022-11-12T04:02:13;4.90;99.90
37002;DHT22;22913;51.910;8.374;2022-11-12T04:04:58;5.00;99.90
37002;DHT22;22913;51.910;8.374;2022-11-12T04:08:13;4.90;99.90
37002;DHT22;22913;51.910;8.374;2022-11-12T04:11:16;4.90;99.90
37002;DHT22;22913;51.910;8.374;2022-11-12T04:14:03;4.80;99.90
37002;DHT22;22913;51.910;8.374;2022-11-12T04:16:48;4.80;99.90
37002;DHT22;22913;51.910;8.374;2022-11-12T04:19:53;4.80;99.90
37002;DHT22;22913;51.910;8.374;2022-11-12T04:22:56;4.90;99.90
37002;DHT22;22913;51.910;8.374;2022-11-12T04:25:42;4.90;99.90
37002;DHT22;22913;51.910;8.374;2022-11-12T04:28:45;4.90;99.90
37002;DHT22;22913;51.910;8.374;2022-11-12T04:31:45;4.90;99.90
37002;DHT22;22913;51.910;8.374;2022-11-12T04:34:30;4.90;99.90
37002;DHT22;22913;51.910;8.374;2022-11-12T04:37:20;4.80;99.90
37002;DHT22;22913;51.910;8.374;2022-11-12T04:40:07;4.80;99.90
37002;DHT22;22913;51.910;8.374;2022-11-12T04:43:09;4.80;99.90
37002;DHT22;22913;51.910;8.374;2022-11-12T04:46:13;4.80;99.90
37002;DHT22;22913;51.910;8.374;2022-11-12T04:48:58;4.70;99.90
37002;DHT22;22913;51.910;8.374;2022-11-12T04:51:44;4.70;99.90
37002;DHT22;22913;51.910;8.374;2022-11-12T04:54:49;4.60;99.90
37002;DHT22;22913;51.910;8.374;2022-11-12T04:57:35;4.60;99.90
37002;DHT22;22913;51.910;8.374;2022-11-12T05:00:20;4.60;99.90
37002;DHT22;22913;51.910;8.374;2022-11-12T05:03:06;4.50;99.90
37002;DHT22;22913;51.910;8.374;2022-11-12T05:05:51;4.50;99.90
37002;DHT22;22913;51.910;8.374;2022-11-12T05:08:37;4.40;99.90
37002;DHT22;22913;51.910;8.374;2022-11-12T05:11:27;4.40;99.90
37002;DHT22;22913;51.910;8.374;2022-11-12T05:14:12;4.40;99.90
37002;DHT22;22913;51.910;8.374;2022-11-12T05:16:58;4.40;99.90
37002;DHT22;22913;51.910;8.374;2022-11-12T05:19:44;4.30;99.90
37002;DHT22;22913;51.910;8.374;2022-11-12T05:22:30;4.30;99.90
37002;DHT22;22913;51.910;8.374;2022-11-12T05:25:15;4.20;99.90
37002;DHT22;22913;51.910;8.374;2022-11-12T05:28:02;4.20;99.90
37002;DHT22;22913;51.910;8.374;2022-11-12T05:30:48;4.10;99.90
37002;DHT22;22913;51.910;8.374;2022-11-12T05:33:33;4.10;99.90
37002;DHT22;22913;51.910;8.374;2022-11-12T05:36:19;4.20;99.90
37002;DHT22;22913;51.910;8.374;2022-11-12T05:39:05;4.10;99.90
37002;DHT22;22913;51.910;8.374;2022-11-12T05:41:51;4.10;99.90
37002;DHT22;22913;51.910;8.374;2022-11-12T05:44:38;4.10;99.90
37002;DHT22;22913;51.910;8.374;2022-11-12T05:47:23;4.10;99.90
37002;DHT22;22913;51.910;8.374;2022-11-12T05:50:08;4.00;99.90
37002;DHT22;22913;51.910;8.374;2022-11-12T05:52:54;4.00;99.90
37002;DHT22;22913;51.910;8.374;2022-11-12T05:55:39;4.10;99.90
37002;DHT22;22913;51.910;8.374;2022-11-12T05:58:25;4.00;99.90
37002;DHT22;22913;51.910;8.374;2022-11-12T06:01:12;4.00;99.90
37002;DHT22;22913;51.910;8.374;2022-11-12T06:03:57;4.00;99.90
37002;DHT22;22913;51.910;8.374;2022-11-12T06:06:43;4.00;99.90
37002;DHT22;22913;51.910;8.374;2022-11-12T06:09:28;4.00;99.90
37002;DHT22;22913;51.910;8.374;2022-11-12T06:12:14;4.00;99.90
37002;DHT22;22913;51.910;8.374;2022-11-12T06:15:00;4.00;99.90
37002;DHT22;22913;51.910;8.374;2022-11-12T06:17:47;4.00;99.90
37002;DHT22;22913;51.910;8.374;2022-11-12T06:20:33;4.00;99.90
37002;DHT22;22913;51.910;8.374;2022-11-12T06:23:18;4.00;99.90
37002;DHT22;22913;51.910;8.374;2022-11-12T06:26:04;4.10;99.90
37002;DHT22;22913;51.910;8.374;2022-11-12T06:28:50;4.00;99.90
37002;DHT22;22913;51.910;8.374;2022-11-12T06:31:35;4.00;99.90
37002;DHT22;22913;51.910;8.374;2022-11-12T06:34:22;4.10;99.90
37002;DHT22;22913;51.910;8.374;2022-11-12T06:37:07;4.00;99.90
37002;DHT22;22913;51.910;8.374;2022-11-12T06:39:53;4.00;99.90
37002;DHT22;22913;51.910;8.374;2022-11-12T06:42:38;4.00;99.90
37002;DHT22;22913;51.910;8.374;2022-11-12T06:45:25;4.10;99.90
37002;DHT22;22913;51.910;8.374;2022-11-12T06:48:10;4.00;99.90
37002;DHT22;22913;51.910;8.374;2022-11-12T06:50:57;4.00;99.90
37002;DHT22;22913;51.910;8.374;2022-11-12T06:53:49;4.10;99.90
37002;DHT22;22913;51.910;8.374;2022-11-12T06:56:35;4.10;99.90
37002;DHT22;22913;51.910;8.374;2022-11-12T06:59:20;4.10;99.90
37002;DHT22;22913;51.910;8.374;2022-11-12T07:02:06;4.20;99.90
37002;DHT22;22913;51.910;8.374;2022-11-12T07:04:52;4.30;99.90
37002;DHT22;22913;51.910;8.374;2022-11-12T07:07:38;4.30;99.90
37002;DHT22;22913;51.910;8.374;2022-11-12T07:10:24;4.30;99.90
37002;DHT22;22913;51.910;8.374;2022-11-12T07:13:10;4.30;99.90
37002;DHT22;22913;51.910;8.374;2022-11-12T07:15:56;4.30;99.90
37002;DHT22;22913;51.910;8.374;2022-11-12T07:18:43;4.40;99.90
37002;DHT22;22913;51.910;8.374;2022-11-12T07:21:28;4.40;99.90
37002;DHT22;22913;51.910;8.374;2022-11-12T07:24:15;4.40;99.90
37002;DHT22;22913;51.910;8.374;2022-11-12T07:27:01;4.50;99.90
37002;DHT22;22913;51.910;8.374;2022-11-12T07:29:46;4.50;99.90
37002;DHT22;22913;51.910;8.374;2022-11-12T07:32:32;4.50;99.90
37002;DHT22;22913;51.910;8.374;2022-11-12T07:35:17;4.50;99.90
37002;DHT22;22913;51.910;8.374;2022-11-12T07:38:03;4.60;99.90
37002;DHT22;22913;51.910;8.374;2022-11-12T07:40:50;4.60;99.90
37002;DHT22;22913;51.910;8.374;2022-11-12T07:43:36;4.60;99.90
37002;DHT22;22913;51.910;8.374;2022-11-12T07:46:24;4.70;99.90
37002;DHT22;22913;51.910;8.374;2022-11-12T07:49:09;4.70;99.90
37002;DHT22;22913;51.910;8.374;2022-11-12T07:51:55;4.70;99.90
37002;DHT22;22913;51.910;8.374;2022-11-12T07:54:40;4.70;99.90
37002;DHT22;22913;51.910;8.374;2022-11-12T07:57:27;4.70;99.90
37002;DHT22;22913;51.910;8.374;2022-11-12T08:00:14;4.80;99.90
37002;DHT22;22913;51.910;8.374;2022-11-12T08:03:00;4.80;99.90
37002;DHT22;22913;51.910;8.374;2022-11-12T08:05:45;4.80;99.90
37002;DHT22;22913;51.910;8.374;2022-11-12T08:08:31;4.90;99.90
37002;DHT22;22913;51.910;8.374;2022-11-12T08:11:16;5.00;99.90
37002;DHT22;22913;51.910;8.374;2022-11-12T08:14:03;5.00;99.90
37002;DHT22;22913;51.910;8.374;2022-11-12T08:16:49;5.10;99.90
37002;DHT22;22913;51.910;8.374;2022-11-12T08:19:35;5.20;99.90
37002;DHT22;22913;51.910;8.374;2022-11-12T08:22:20;5.30;99.90
37002;DHT22;22913;51.910;8.374;2022-11-12T08:25:06;5.30;99.90
37002;DHT22;22913;51.910;8.374;2022-11-12T08:27:55;5.40;99.90
37002;DHT22;22913;51.910;8.374;2022-11-12T08:30:42;5.50;99.90
37002;DHT22;22913;51.910;8.374;2022-11-12T08:33:29;5.60;99.90
37002;DHT22;22913;51.910;8.374;2022-11-12T08:36:16;5.70;99.90
37002;DHT22;22913;51.910;8.374;2022-11-12T08:39:01;5.90;99.90
37002;DHT22;22913;51.910;8.374;2022-11-12T08:41:47;6.00;99.90
37002;DHT22;22913;51.910;8.374;2022-11-12T08:44:33;6.10;99.90
37002;DHT22;22913;51.910;8.374;2022-11-12T08:47:19;6.20;99.90
37002;DHT22;22913;51.910;8.374;2022-11-12T08:50:06;6.30;99.90
37002;DHT22;22913;51.910;8.374;2022-11-12T08:52:52;6.30;99.90
37002;DHT22;22913;51.910;8.374;2022-11-12T08:55:37;6.40;99.90
37002;DHT22;22913;51.910;8.374;2022-11-12T08:58:24;6.50;99.90
37002;DHT22;22913;51.910;8.374;2022-11-12T09:01:09;6.60;99.90
37002;DHT22;22913;51.910;8.374;2022-11-12T09:03:56;6.70;99.90
37002;DHT22;22913;51.910;8.374;2022-11-12T09:06:42;6.70;99.90
37002;DHT22;22913;51.910;8.374;2022-11-12T09:09:27;6.80;99.90
37002;DHT22;22913;51.910;8.374;2022-11-12T09:12:13;6.90;99.90
37002;DHT22;22913;51.910;8.374;2022-11-12T09:15:02;7.00;99.90
37002;DHT22;22913;51.910;8.374;2022-11-12T09:17:53;7.10;99.90
37002;DHT22;22913;51.910;8.374;2022-11-12T09:20:40;7.10;99.90
37002;DHT22;22913;51.910;8.374;2022-11-12T09:23:26;7.20;99.90
37002;DHT22;22913;51.910;8.374;2022-11-12T09:26:11;7.30;99.90
37002;DHT22;22913;51.910;8.374;2022-11-12T09:28:57;7.30;99.90
37002;DHT22;22913;51.910;8.374;2022-11-12T09:31:42;7.40;99.90
37002;DHT22;22913;51.910;8.374;2022-11-12T09:34:29;7.50;99.90
37002;DHT22;22913;51.910;8.374;2022-11-12T09:37:16;7.60;99.90
37002;DHT22;22913;51.910;8.374;2022-11-12T09:40:02;7.80;99.90
37002;DHT22;22913;51.910;8.374;2022-11-12T09:42:51;7.90;99.90
37002;DHT22;22913;51.910;8.374;2022-11-12T09:45:37;8.10;99.90
37002;DHT22;22913;51.910;8.374;2022-11-12T09:48:28;8.20;99.90
37002;DHT22;22913;51.910;8.374;2022-11-12T09:51:22;8.40;99.90
37002;DHT22;22913;51.910;8.374;2022-11-12T09:54:19;8.70;99.90
37002;DHT22;22913;51.910;8.374;2022-11-12T09:57:09;9.10;99.90
37002;DHT22;22913;51.910;8.374;2022-11-12T09:59:56;9.40;99.90
37002;DHT22;22913;51.910;8.374;2022-11-12T10:02:46;9.80;99.90
37002;DHT22;22913;51.910;8.374;2022-11-12T10:05:41;10.10;99.90
37002;DHT22;22913;51.910;8.374;2022-11-12T10:08:36;10.50;99.90
37002;DHT22;22913;51.910;8.374;2022-11-12T10:11:43;10.80;99.90
37002;DHT22;22913;51.910;8.374;2022-11-12T10:15:02;11.20;99.90
37002;DHT22;22913;51.910;8.374;2022-11-12T10:18:08;11.60;99.90
37002;DHT22;22913;51.910;8.374;2022-11-12T10:21:00;12.00;99.90
37002;DHT22;22913;51.910;8.374;2022-11-12T10:23:52;12.30;99.90
37002;DHT22;22913;51.910;8.374;2022-11-12T10:26:40;12.80;99.90
37002;DHT22;22913;51.910;8.374;2022-11-12T10:29:29;13.20;99.90
37002;DHT22;22913;51.910;8.374;2022-11-12T10:32:17;13.60;99.90
37002;DHT22;22913;51.910;8.374;2022-11-12T10:35:03;14.10;99.90
37002;DHT22;22913;51.910;8.374;2022-11-12T10:37:52;14.60;99.90
37002;DHT22;22913;51.910;8.374;2022-11-12T10:40:40;15.00;99.90
37002;DHT22;22913;51.910;8.374;2022-11-12T10:43:27;15.30;99.90
37002;DHT22;22913;51.910;8.374;2022-11-12T10:46:17;15.60;99.90
37002;DHT22;22913;51.910;8.374;2022-11-12T10:49:05;15.70;99.90
37002;DHT22;22913;51.910;8.374;2022-11-12T10:51:54;15.80;99.90
37002;DHT22;22913;51.910;8.374;2022-11-12T10:54:40;16.00;99.90
37002;DHT22;22913;51.910;8.374;2022-11-12T10:57:26;16.40;99.90
37002;DHT22;22913;51.910;8.374;2022-11-12T11:00:18;17.10;99.90
37002;DHT22;22913;51.910;8.374;2022-11-12T11:03:06;17.70;99.90
37002;DHT22;22913;51.910;8.374;2022-11-12T11:06:02;18.30;99.90
37002;DHT22;22913;51.910;8.374;2022-11-12T11:08:50;18.90;99.90
37002;DHT22;22913;51.910;8.374;2022-11-12T11:11:35;19.40;99.90
37002;DHT22;22913;51.910;8.374;2022-11-12T11:14:39;19.90;99.90
37002;DHT22;22913;51.910;8.374;2022-11-12T11:17:29;20.60;99.90
37002;DHT22;22913;51.910;8.374;2022-11-12T11:20:18;21.10;99.90
37002;DHT22;22913;51.910;8.374;2022-11-12T11:23:13;21.60;99.90
37002;DHT22;22913;51.910;8.374;2022-11-12T11:26:17;22.00;99.90
37002;DHT22;22913;51.910;8.374;2022-11-12T11:29:18;22.30;99.90
37002;DHT22;22913;51.910;8.374;2022-11-12T11:32:13;22.60;99.90
37002;DHT22;22913;51.910;8.374;2022-11-12T11:35:12;22.60;99.90
37002;DHT22;22913;51.910;8.374;2022-11-12T11:38:13;22.40;99.90
37002;DHT22;22913;51.910;8.374;2022-11-12T11:41:12;22.70;99.90
37002;DHT22;22913;51.910;8.374;2022-11-12T11:44:05;23.10;99.90
37002;DHT22;22913;51.910;8.374;2022-11-12T11:47:02;23.40;99.90
37002;DHT22;22913;51.910;8.374;2022-11-12T11:50:08;23.20;99.90
37002;DHT22;22913;51.910;8.374;2022-11-12T11:53:09;23.30;99.90
37002;DHT22;22913;51.910;8.374;2022-11-12T11:55:58;23.30;99.80
37002;DHT22;22913;51.910;8.374;2022-11-12T11:59:04;23.40;99.90
37002;DHT22;22913;51.910;8.374;2022-11-12T12:02:17;23.60;99.60
37002;DHT22;22913;51.910;8.374;2022-11-12T12:05:21;23.90;99.50
37002;DHT22;22913;51.910;8.374;2022-11-12T12:08:13;24.10;98.50
37002;DHT22;22913;51.910;8.374;2022-11-12T12:11:07;24.20;98.60
37002;DHT22;22913;51.910;8.374;2022-11-12T12:14:06;24.80;98.10
37002;DHT22;22913;51.910;8.374;2022-11-12T12:17:03;25.30;97.30
37002;DHT22;22913;51.910;8.374;2022-11-12T12:19:58;25.60;96.40
37002;DHT22;22913;51.910;8.374;2022-11-12T12:22:49;25.20;95.20
37002;DHT22;22913;51.910;8.374;2022-11-12T12:25:38;25.20;95.70
37002;DHT22;22913;51.910;8.374;2022-11-12T12:28:32;25.40;95.10
37002;DHT22;22913;51.910;8.374;2022-11-12T12:31:22;25.30;94.40
37002;DHT22;22913;51.910;8.374;2022-11-12T12:34:17;25.90;94.50
37002;DHT22;22913;51.910;8.374;2022-11-12T12:37:08;26.40;93.10
37002;DHT22;22913;51.910;8.374;2022-11-12T12:40:00;26.80;92.20
37002;DHT22;22913;51.910;8.374;2022-11-12T12:42:54;26.70;91.00
37002;DHT22;22913;51.910;8.374;2022-11-12T12:45:41;26.30;90.50
37002;DHT22;22913;51.910;8.374;2022-11-12T12:48:29;26.00;90.00
37002;DHT22;22913;51.910;8.374;2022-11-12T12:51:16;25.40;90.90
37002;DHT22;22913;51.910;8.374;2022-11-12T12:54:02;25.10;91.20
37002;DHT22;22913;51.910;8.374;2022-11-12T12:56:49;24.60;91.10
37002;DHT22;22913;51.910;8.374;2022-11-12T12:59:35;24.20;91.20
37002;DHT22;22913;51.910;8.374;2022-11-12T13:02:22;24.00;92.30
37002;DHT22;22913;51.910;8.374;2022-11-12T13:05:22;23.70;92.40
37002;DHT22;22913;51.910;8.374;2022-11-12T13:08:10;23.20;93.80
37002;DHT22;22913;51.910;8.374;2022-11-12T13:10:56;23.00;93.80
37002;DHT22;22913;51.910;8.374;2022-11-12T13:13:44;22.50;94.30
37002;DHT22;22913;51.910;8.374;2022-11-12T13:16:55;22.10;95.50
37002;DHT22;22913;51.910;8.374;2022-11-12T13:19:45;21.90;96.20
37002;DHT22;22913;51.910;8.374;2022-11-12T13:22:48;21.60;96.30
37002;DHT22;22913;51.910;8.374;2022-11-12T13:25:34;21.30;96.50
37002;DHT22;22913;51.910;8.374;2022-11-12T13:28:20;21.00;97.10
37002;DHT22;22913;51.910;8.374;2022-11-12T13:31:26;20.90;97.60
37002;DHT22;22913;51.910;8.374;2022-11-12T13:34:17;20.80;99.00
37002;DHT22;22913;51.910;8.374;2022-11-12T13:37:04;20.60;98.70
37002;DHT22;22913;51.910;8.374;2022-11-12T13:39:50;20.40;99.80
37002;DHT22;22913;51.910;8.374;2022-11-12T13:42:36;20.30;98.90
37002;DHT22;22913;51.910;8.374;2022-11-12T13:45:39;20.20;99.20
37002;DHT22;22913;51.910;8.374;2022-11-12T13:48:31;20.10;99.20
37002;DHT22;22913;51.910;8.374;2022-11-12T13:51:20;19.90;99.90
37002;DHT22;22913;51.910;8.374;2022-11-12T13:54:24;19.80;99.90
37002;DHT22;22913;51.910;8.374;2022-11-12T13:57:28;19.70;99.90
37002;DHT22;22913;51.910;8.374;2022-11-12T14:00:25;19.60;99.90
37002;DHT22;22913;51.910;8.374;2022-11-12T14:03:16;19.50;99.90
37002;DHT22;22913;51.910;8.374;2022-11-12T14:06:06;19.50;99.90
37002;DHT22;22913;51.910;8.374;2022-11-12T14:09:15;19.40;99.90
37002;DHT22;22913;51.910;8.374;2022-11-12T14:12:27;19.30;99.90
37002;DHT22;22913;51.910;8.374;2022-11-12T14:15:30;19.10;99.90
37002;DHT22;22913;51.910;8.374;2022-11-12T14:18:24;18.90;99.90
37002;DHT22;22913;51.910;8.374;2022-11-12T14:21:16;18.60;99.90
37002;DHT22;22913;51.910;8.374;2022-11-12T14:24:02;18.40;99.90
37002;DHT22;22913;51.910;8.374;2022-11-12T14:26:48;18.30;99.90
37002;DHT22;22913;51.910;8.374;2022-11-12T14:29:35;18.20;99.90
37002;DHT22;22913;51.910;8.374;2022-11-12T14:32:20;18.20;99.90
37002;DHT22;22913;51.910;8.374;2022-11-12T14:35:20;18.20;99.90
37002;DHT22;22913;51.910;8.374;2022-11-12T14:38:14;18.10;99.90
37002;DHT22;22913;51.910;8.374;2022-11-12T14:41:06;18.10;99.90
37002;DHT22;22913;51.910;8.374;2022-11-12T14:43:53;18.10;99.90
37002;DHT22;22913;51.910;8.374;2022-11-12T14:46:44;17.90;99.90
37002;DHT22;22913;51.910;8.374;2022-11-12T14:49:35;17.90;99.90
37002;DHT22;22913;51.910;8.374;2022-11-12T14:52:25;17.90;99.90
37002;DHT22;22913;51.910;8.374;2022-11-12T14:55:15;17.80;99.90
37002;DHT22;22913;51.910;8.374;2022-11-12T14:58:01;17.80;99.90
37002;DHT22;22913;51.910;8.374;2022-11-12T15:00:49;17.70;99.90
37002;DHT22;22913;51.910;8.374;2022-11-12T15:03:35;17.60;99.90
37002;DHT22;22913;51.910;8.374;2022-11-12T15:06:28;17.50;99.90
37002;DHT22;22913;51.910;8.374;2022-11-12T15:09:16;17.40;99.90
37002;DHT22;22913;51.910;8.374;2022-11-12T15:12:07;17.20;99.90
37002;DHT22;22913;51.910;8.374;2022-11-12T15:15:06;17.00;99.90
37002;DHT22;22913;51.910;8.374;2022-11-12T15:17:56;16.90;99.90
37002;DHT22;22913;51.910;8.374;2022-11-12T15:20:41;16.80;99.90
37002;DHT22;22913;51.910;8.374;2022-11-12T15:23:27;16.80;99.90
37002;DHT22;22913;51.910;8.374;2022-11-12T15:26:21;16.80;99.90
37002;DHT22;22913;51.910;8.374;2022-11-12T15:29:18;16.70;99.90
37002;DHT22;22913;51.910;8.374;2022-11-12T15:35:37;16.20;99.90
37002;DHT22;22913;51.910;8.374;2022-11-12T15:38:28;16.00;99.90
37002;DHT22;22913;51.910;8.374;2022-11-12T15:41:21;15.80;99.90
37002;DHT22;22913;51.910;8.374;2022-11-12T15:44:08;15.70;99.90
37002;DHT22;22913;51.910;8.374;2022-11-12T15:46:54;15.50;99.90
37002;DHT22;22913;51.910;8.374;2022-11-12T15:49:50;15.30;99.90
37002;DHT22;22913;51.910;8.374;2022-11-12T15:52:35;15.20;99.90
37002;DHT22;22913;51.910;8.374;2022-11-12T15:55:21;15.00;99.90
37002;DHT22;22913;51.910;8.374;2022-11-12T15:58:12;14.80;99.90
37002;DHT22;22913;51.910;8.374;2022-11-12T16:00:59;14.80;99.90
37002;DHT22;22913;51.910;8.374;2022-11-12T16:03:46;14.60;99.90
37002;DHT22;22913;51.910;8.374;2022-11-12T16:06:32;14.40;99.90
37002;DHT22;22913;51.910;8.374;2022-11-12T16:09:17;14.20;99.90
37002;DHT22;22913;51.910;8.374;2022-11-12T16:12:03;14.10;99.90
37002;DHT22;22913;51.910;8.374;2022-11-12T16:14:49;13.90;99.90
37002;DHT22;22913;51.910;8.374;2022-11-12T16:17:34;13.80;99.90
37002;DHT22;22913;51.910;8.374;2022-11-12T16:20:22;13.60;99.90
37002;DHT22;22913;51.910;8.374;2022-11-12T16:23:09;13.50;99.90
37002;DHT22;22913;51.910;8.374;2022-11-12T16:25:54;13.40;99.90
37002;DHT22;22913;51.910;8.374;2022-11-12T16:28:40;13.20;99.90
37002;DHT22;22913;51.910;8.374;2022-11-12T16:31:27;13.20;99.90
37002;DHT22;22913;51.910;8.374;2022-11-12T16:34:12;13.10;99.90
37002;DHT22;22913;51.910;8.374;2022-11-12T16:36:59;13.00;99.90
37002;DHT22;22913;51.910;8.374;2022-11-12T16:39:45;12.90;99.90
37002;DHT22;22913;51.910;8.374;2022-11-12T16:42:31;12.80;99.90
37002;DHT22;22913;51.910;8.374;2022-11-12T16:45:18;12.70;99.90
37002;DHT22;22913;51.910;8.374;2022-11-12T16:48:10;12.60;99.90
37002;DHT22;22913;51.910;8.374;2022-11-12T16:50:58;12.50;99.90
37002;DHT22;22913;51.910;8.374;2022-11-12T16:53:45;12.40;99.90
37002;DHT22;22913;51.910;8.374;2022-11-12T16:56:31;12.30;99.90
37002;DHT22;22913;51.910;8.374;2022-11-12T16:59:16;12.30;99.90
37002;DHT22;22913;51.910;8.374;2022-11-12T17:02:02;12.20;99.90
37002;DHT22;22913;51.910;8.374;2022-11-12T17:04:47;12.10;99.90
37002;DHT22;22913;51.910;8.374;2022-11-12T17:07:33;12.00;99.90
37002;DHT22;22913;51.910;8.374;2022-11-12T17:10:20;11.90;99.90
37002;DHT22;22913;51.910;8.374;2022-11-12T17:13:09;11.80;99.90
37002;DHT22;22913;51.910;8.374;2022-11-12T17:15:56;11.60;99.90
37002;DHT22;22913;51.910;8.374;2022-11-12T17:18:42;11.60;99.90
37002;DHT22;22913;51.910;8.374;2022-11-12T17:21:28;11.50;99.90
37002;DHT22;22913;51.910;8.374;2022-11-12T17:24:13;11.50;99.90
37002;DHT22;22913;51.910;8.374;2022-11-12T17:27:00;11.50;99.90
37002;DHT22;22913;51.910;8.374;2022-11-12T17:29:46;11.30;99.90
37002;DHT22;22913;51.910;8.374;2022-11-12T17:32:32;11.30;99.90
37002;DHT22;22913;51.910;8.374;2022-11-12T17:35:17;11.10;99.90
37002;DHT22;22913;51.910;8.374;2022-11-12T17:38:03;11.00;99.90
37002;DHT22;22913;51.910;8.374;2022-11-12T17:40:54;11.00;99.90
37002;DHT22;22913;51.910;8.374;2022-11-12T17:43:40;10.90;99.90
37002;DHT22;22913;51.910;8.374;2022-11-12T17:46:26;10.80;99.90
37002;DHT22;22913;51.910;8.374;2022-11-12T17:49:13;10.80;99.90
37002;DHT22;22913;51.910;8.374;2022-11-12T17:51:58;10.70;99.90
37002;DHT22;22913;51.910;8.374;2022-11-12T17:54:44;10.60;99.90
37002;DHT22;22913;51.910;8.374;2022-11-12T17:57:30;10.50;99.90
37002;DHT22;22913;51.910;8.374;2022-11-12T18:00:18;10.40;99.90